Time;durP1;ratioP1;P1;durP2;ratioP2;P2;SDS_P1;SDS_P2;PMS_P1;PMS_P2;Temp;Humidity;BMP_temperature;BMP_pressure;BME280_temperature;BME280_humidity;BME280_pressure;Samples;Min_cycle;Max_cycle;Signal;HPM_P1;HPM_P2
2020/12/17 00:01:44;;;;;;;40.65;35.33;;;5.90;99.90;;;;;;5051249;28;20389;-53
2020/12/17 00:04:09;;;;;;;35.27;19.50;;;5.90;99.90;;;;;;5050247;28;20389;-53
2020/12/17 00:06:36;;;;;;;29.65;19.38;;;6.00;99.90;;;;;;5051137;28;20779;-53
2020/12/17 00:09:03;;;;;;;33.80;19.25;;;6.00;99.90;;;;;;5050399;28;20389;-53
2020/12/17 00:11:29;;;;;;;37.40;19.30;;;5.90;99.90;;;;;;5051134;28;20484;-55
2020/12/17 00:13:54;;;;;;;30.27;18.83;;;5.90;99.90;;;;;;5049535;28;20468;-54
2020/12/17 00:16:20;;;;;;;34.87;18.97;;;5.90;99.90;;;;;;5050853;28;20759;-53
2020/12/17 00:18:45;;;;;;;29.00;17.02;;;5.80;99.90;;;;;;5049391;28;20429;-54
2020/12/17 00:21:11;;;;;;;28.63;19.13;;;5.70;99.90;;;;;;5050372;28;20400;-53
2020/12/17 00:23:37;;;;;;;31.07;18.10;;;5.70;99.90;;;;;;5050788;28;20393;-53
2020/12/17 00:26:02;;;;;;;33.13;19.55;;;5.80;99.90;;;;;;5051471;28;20385;-53
2020/12/17 00:28:28;;;;;;;34.93;19.83;;;5.80;99.90;;;;;;5049578;28;20871;-55
2020/12/17 00:30:53;;;;;;;27.92;18.00;;;5.70;99.90;;;;;;5050858;28;20382;-53
2020/12/17 00:33:19;;;;;;;28.10;18.37;;;6.40;99.90;;;;;;5051466;28;20688;-53
2020/12/17 00:35:44;;;;;;;29.10;17.52;;;5.80;99.90;;;;;;5048801;28;20891;-53
2020/12/17 00:38:10;;;;;;;30.60;17.50;;;5.80;99.90;;;;;;5050930;28;20898;-53
2020/12/17 00:40:36;;;;;;;28.58;17.75;;;5.70;99.90;;;;;;5047567;28;20416;-53
2020/12/17 00:43:01;;;;;;;30.17;17.97;;;6.50;99.90;;;;;;5051138;28;20405;-53
2020/12/17 00:45:27;;;;;;;31.67;18.50;;;5.70;99.90;;;;;;5048189;28;20397;-55
2020/12/17 00:47:53;;;;;;;29.27;17.50;;;5.70;99.90;;;;;;5049300;28;20381;-54
2020/12/17 00:50:18;;;;;;;27.17;16.50;;;5.70;99.90;;;;;;5049738;28;20846;-53
2020/12/17 00:52:44;;;;;;;26.65;17.10;;;5.60;99.90;;;;;;5049694;28;20926;-53
2020/12/17 00:55:10;;;;;;;31.57;17.37;;;5.60;99.90;;;;;;5049048;28;20488;-54
2020/12/17 00:57:36;;;;;;;30.57;18.07;;;5.60;99.90;;;;;;5050380;28;20467;-53
2020/12/17 01:00:04;;;;;;;27.77;17.33;;;5.50;99.90;;;;;;5049047;28;20529;-53
2020/12/17 01:02:29;;;;;;;29.92;17.20;;;5.40;99.90;;;;;;5049107;28;20398;-55
2020/12/17 01:04:55;;;;;;;27.07;17.67;;;5.50;99.90;;;;;;5050053;28;20397;-53
2020/12/17 01:07:20;;;;;;;30.20;16.83;;;6.10;99.90;;;;;;5050577;28;20786;-53
2020/12/17 01:09:46;;;;;;;29.80;17.10;;;5.50;99.90;;;;;;5048558;28;20485;-54
2020/12/17 01:12:12;;;;;;;26.95;17.42;;;5.60;99.90;;;;;;5050561;28;20855;-53
2020/12/17 01:14:39;;;;;;;29.42;17.10;;;6.10;99.90;;;;;;5049964;28;20378;-53
2020/12/17 01:17:06;;;;;;;27.75;17.17;;;5.50;99.90;;;;;;5045624;28;20459;-53
2020/12/17 01:19:32;;;;;;;29.48;18.30;;;5.50;99.90;;;;;;5050247;28;20909;-53
2020/12/17 01:21:58;;;;;;;30.10;17.10;;;5.70;99.90;;;;;;5048426;28;20397;-53
2020/12/17 01:24:24;;;;;;;30.17;17.52;;;5.40;99.90;;;;;;5050539;28;20385;-53
2020/12/17 01:26:55;;;;;;;30.27;17.30;;;5.40;99.90;;;;;;5049306;28;20458;-53
2020/12/17 01:29:22;;;;;;;29.20;17.90;;;5.30;99.90;;;;;;5048724;28;20759;-53
2020/12/17 01:31:48;;;;;;;32.83;18.20;;;5.90;99.90;;;;;;5049834;28;20404;-53
2020/12/17 01:34:13;;;;;;;30.80;17.93;;;5.40;99.90;;;;;;5048608;28;20879;-53
2020/12/17 01:36:39;;;;;;;30.17;17.33;;;6.10;99.90;;;;;;5049015;28;20468;-53
2020/12/17 01:39:05;;;;;;;28.58;17.38;;;5.30;99.90;;;;;;5049137;28;20417;-53
2020/12/17 01:41:30;;;;;;;30.10;16.40;;;5.30;99.90;;;;;;5048614;28;20531;-55
2020/12/17 01:44:01;;;;;;;29.40;16.50;;;5.30;99.90;;;;;;5049888;28;20942;-53
2020/12/17 01:46:27;;;;;;;28.80;16.60;;;5.20;99.90;;;;;;5048330;28;20393;-53
2020/12/17 01:48:53;;;;;;;29.13;16.60;;;5.40;99.90;;;;;;5046314;28;20791;-54
2020/12/17 01:51:19;;;;;;;27.23;15.83;;;5.20;99.90;;;;;;5050131;28;20448;-53
2020/12/17 01:53:44;;;;;;;30.40;16.85;;;5.10;99.90;;;;;;5049209;28;20427;-53
2020/12/17 01:56:16;;;;;;;27.60;16.70;;;5.10;99.90;;;;;;5048285;28;20469;-53
2020/12/17 01:58:53;;;;;;;28.00;16.38;;;5.10;99.90;;;;;;5047738;28;20826;-53
2020/12/17 02:01:23;;;;;;;26.17;15.95;;;7.40;99.90;;;;;;5047805;28;20472;-53
2020/12/17 02:03:48;;;;;;;28.75;16.80;;;5.00;99.90;;;;;;5048961;28;20423;-53
2020/12/17 02:06:15;;;;;;;28.47;16.77;;;5.10;99.90;;;;;;5047940;28;20794;-53
2020/12/17 02:08:40;;;;;;;29.95;16.75;;;5.10;99.90;;;;;;5048422;28;20412;-53
2020/12/17 02:11:10;;;;;;;26.70;16.73;;;3.20;99.90;;;;;;5048573;28;20386;-53
2020/12/17 02:13:36;;;;;;;25.65;15.43;;;4.90;99.90;;;;;;5049135;28;20753;-53
2020/12/17 02:16:05;;;;;;;27.50;15.80;;;4.90;99.90;;;;;;5047470;28;20887;-53
2020/12/17 02:18:31;;;;;;;28.63;16.60;;;4.90;99.90;;;;;;5049372;28;20417;-55
2020/12/17 02:20:57;;;;;;;27.07;15.97;;;4.80;99.90;;;;;;5047837;28;20389;-53
2020/12/17 02:23:23;;;;;;;27.40;17.10;;;6.10;99.90;;;;;;5049461;28;20407;-54
2020/12/17 02:25:50;;;;;;;28.77;17.80;;;4.90;99.90;;;;;;5048061;28;20958;-53
2020/12/17 02:28:17;;;;;;;28.50;19.00;;;5.10;99.90;;;;;;5048891;28;20397;-52
2020/12/17 02:30:43;;;;;;;28.73;19.27;;;4.80;99.90;;;;;;5049117;28;20405;-54
2020/12/17 02:33:10;;;;;;;28.35;18.42;;;4.80;99.90;;;;;;5048000;28;20393;-53
2020/12/17 02:35:37;;;;;;;23.93;16.20;;;4.80;99.90;;;;;;5048896;28;20430;-54
2020/12/17 02:38:03;;;;;;;28.83;16.60;;;7.00;99.90;;;;;;5047528;28;20432;-53
2020/12/17 02:40:29;;;;;;;28.65;17.60;;;4.70;99.90;;;;;;5050660;28;20704;-54
2020/12/17 02:42:54;;;;;;;27.52;17.10;;;5.20;99.90;;;;;;5052140;28;20397;-53
2020/12/17 02:45:20;;;;;;;27.13;16.80;;;6.60;99.90;;;;;;5053348;28;20389;-53
2020/12/17 02:47:46;;;;;;;27.40;16.50;;;5.10;99.90;;;;;;5051856;28;20412;-53
2020/12/17 02:50:13;;;;;;;30.03;16.40;;;4.60;99.90;;;;;;5051999;28;20393;-54
2020/12/17 02:52:40;;;;;;;26.48;16.60;;;4.60;99.90;;;;;;5051055;28;20401;-54
2020/12/17 02:55:06;;;;;;;28.73;16.65;;;4.60;99.90;;;;;;5051852;28;20837;-54
2020/12/17 02:57:34;;;;;;;29.20;16.27;;;5.70;99.90;;;;;;5050723;28;20763;-57
2020/12/17 03:00:04;;;;;;;28.13;16.35;;;4.50;99.90;;;;;;5058108;28;20405;-54
2020/12/17 03:02:29;;;;;;;25.97;15.00;;;4.50;99.90;;;;;;5053033;28;20366;-53
2020/12/17 03:04:55;;;;;;;25.87;15.40;;;4.50;99.90;;;;;;5050955;28;20767;-54
2020/12/17 03:07:21;;;;;;;22.92;15.02;;;4.50;99.90;;;;;;5053153;28;20457;-53
2020/12/17 03:09:46;;;;;;;22.90;15.10;;;4.40;99.90;;;;;;5050283;28;20389;-54
2020/12/17 03:12:12;;;;;;;27.00;15.40;;;4.80;99.90;;;;;;5049818;28;20392;-54
2020/12/17 03:14:37;;;;;;;26.13;15.23;;;4.40;99.90;;;;;;5051730;28;20452;-54
2020/12/17 03:17:03;;;;;;;26.35;16.05;;;5.50;99.90;;;;;;5052123;28;20404;-54
2020/12/17 03:19:29;;;;;;;26.50;15.00;;;4.30;99.90;;;;;;5051632;28;20397;-54
2020/12/17 03:21:54;;;;;;;29.30;16.43;;;5.40;99.90;;;;;;5051142;28;20911;-54
2020/12/17 03:24:20;;;;;;;26.02;16.30;;;4.80;99.90;;;;;;5051239;28;20408;-54
2020/12/17 03:26:45;;;;;;;28.10;17.10;;;4.20;99.90;;;;;;5050587;28;20408;-54
2020/12/17 03:29:11;;;;;;;29.42;16.98;;;4.30;99.90;;;;;;5052358;28;20782;-54
2020/12/17 03:31:36;;;;;;;28.40;17.40;;;4.50;99.90;;;;;;5050338;28;20821;-54
2020/12/17 03:34:02;;;;;;;28.00;18.02;;;5.30;99.90;;;;;;5052726;28;20381;-54
2020/12/17 03:36:28;;;;;;;31.90;17.80;;;5.40;99.90;;;;;;5050667;28;20429;-54
2020/12/17 03:38:53;;;;;;;30.17;18.52;;;4.40;99.90;;;;;;5051515;28;20480;-54
2020/12/17 03:41:19;;;;;;;33.17;19.13;;;5.60;99.90;;;;;;5051067;28;20416;-54
2020/12/17 03:43:45;;;;;;;30.67;18.93;;;4.80;99.90;;;;;;5050681;28;20382;-54
2020/12/17 03:46:10;;;;;;;29.73;18.27;;;5.70;99.90;;;;;;5049260;28;20404;-54
2020/12/17 03:48:36;;;;;;;31.20;18.60;;;4.50;99.90;;;;;;5051360;28;20393;-54
2020/12/17 03:51:02;;;;;;;33.00;19.10;;;6.40;99.90;;;;;;5050512;28;20420;-54
2020/12/17 03:53:27;;;;;;;28.65;18.58;;;5.10;99.90;;;;;;5051681;28;20740;-54
2020/12/17 03:55:53;;;;;;;33.03;18.30;;;4.60;99.90;;;;;;5051407;28;20584;-54
2020/12/17 03:58:19;;;;;;;29.08;18.08;;;6.40;99.90;;;;;;5049877;28;20899;-54
2020/12/17 04:00:44;;;;;;;29.47;18.20;;;4.60;99.90;;;;;;5051361;28;20378;-54
2020/12/17 04:03:10;;;;;;;27.63;17.90;;;4.60;99.90;;;;;;5052258;28;20378;-54
2020/12/17 04:05:35;;;;;;;26.92;17.27;;;4.50;99.90;;;;;;5049264;28;20394;-55
2020/12/17 04:08:01;;;;;;;26.03;16.37;;;4.50;99.90;;;;;;5051865;28;20393;-54
2020/12/17 04:10:27;;;;;;;28.13;17.25;;;5.60;99.90;;;;;;5049938;28;20476;-54
2020/12/17 04:12:52;;;;;;;28.07;17.50;;;4.30;99.90;;;;;;5081816;28;20404;-54
2020/12/17 04:15:18;;;;;;;28.93;17.00;;;6.50;99.90;;;;;;5051585;28;20473;-53
2020/12/17 04:17:44;;;;;;;26.70;17.08;;;4.40;99.90;;;;;;5050577;28;20719;-54
2020/12/17 04:20:10;;;;;;;25.77;16.85;;;6.80;99.90;;;;;;5049552;28;20393;-54
2020/12/17 04:22:35;;;;;;;27.27;16.63;;;4.40;99.90;;;;;;5051422;28;20397;-56
2020/12/17 04:25:01;;;;;;;34.53;19.88;;;5.80;99.90;;;;;;5049439;28;20404;-54
2020/12/17 04:27:26;;;;;;;30.47;18.80;;;4.30;99.90;;;;;;5050879;28;20401;-54
2020/12/17 04:29:52;;;;;;;25.07;17.70;;;4.60;99.90;;;;;;5050072;28;20891;-54
2020/12/17 04:32:18;;;;;;;27.60;18.02;;;5.30;99.90;;;;;;5049245;28;20409;-53
2020/12/17 04:34:43;;;;;;;27.63;17.50;;;4.40;99.90;;;;;;5050748;28;20910;-54
2020/12/17 04:37:09;;;;;;;25.85;17.38;;;4.50;99.90;;;;;;5049793;28;20508;-54
2020/12/17 04:39:34;;;;;;;25.70;15.93;;;4.40;99.90;;;;;;5050928;28;20500;-56
2020/12/17 04:42:01;;;;;;;22.42;15.18;;;6.10;99.90;;;;;;5051341;28;20392;-54
2020/12/17 04:44:27;;;;;;;23.97;15.33;;;4.30;99.90;;;;;;5049459;28;20760;-53
2020/12/17 04:46:58;;;;;;;24.55;14.50;;;4.30;99.90;;;;;;5049691;28;20496;-54
2020/12/17 04:49:26;;;;;;;24.50;15.68;;;4.30;99.90;;;;;;5050309;28;20393;-54
2020/12/17 04:51:56;;;;;;;22.80;14.50;;;4.30;99.90;;;;;;5049269;28;20535;-54
2020/12/17 04:54:23;;;;;;;23.90;15.25;;;4.60;99.90;;;;;;5049312;28;20405;-54
2020/12/17 04:56:58;;;;;;;23.25;14.70;;;6.10;99.90;;;;;;5057149;28;20415;-54
2020/12/17 04:59:39;;;;;;;23.13;13.90;;;4.20;99.90;;;;;;5071048;28;20407;-54
2020/12/17 05:02:06;;;;;;;24.10;14.38;;;4.30;99.90;;;;;;5048721;28;20400;-54
2020/12/17 05:04:36;;;;;;;23.42;15.38;;;6.10;99.90;;;;;;5059358;28;20386;-54
2020/12/17 05:07:07;;;;;;;25.23;15.00;;;4.50;99.90;;;;;;5060956;28;20409;-55
2020/12/17 05:09:34;;;;;;;22.00;13.83;;;4.60;99.90;;;;;;5050638;28;20388;-56
2020/12/17 05:12:00;;;;;;;23.50;14.60;;;6.90;99.90;;;;;;5051429;28;20452;-54
2020/12/17 05:14:28;;;;;;;25.10;15.30;;;4.50;99.90;;;;;;5042625;28;20790;-54
2020/12/17 05:16:54;;;;;;;21.63;13.88;;;4.50;99.90;;;;;;5045307;28;20496;-55
2020/12/17 05:19:21;;;;;;;21.85;13.02;;;4.50;99.90;;;;;;5050873;28;20448;-54
2020/12/17 05:21:47;;;;;;;24.30;14.05;;;6.00;99.90;;;;;;5049963;28;20415;-54
2020/12/17 05:24:13;;;;;;;23.43;13.87;;;6.00;99.90;;;;;;5048818;28;20488;-57
2020/12/17 05:26:39;;;;;;;22.90;14.50;;;5.40;99.90;;;;;;5049496;28;20826;-54
2020/12/17 05:29:05;;;;;;;24.60;15.13;;;4.70;99.90;;;;;;5050597;28;20381;-54
2020/12/17 05:31:34;;;;;;;24.02;13.70;;;4.70;99.90;;;;;;5048317;28;20484;-54
2020/12/17 05:34:04;;;;;;;23.00;13.98;;;4.70;99.90;;;;;;5045395;28;20399;-54
2020/12/17 05:36:31;;;;;;;22.70;13.40;;;6.20;99.90;;;;;;5035063;28;20480;-54
2020/12/17 05:39:18;;;;;;;23.98;13.85;;;4.50;99.90;;;;;;5049412;28;20512;-54
2020/12/17 05:41:45;;;;;;;22.73;13.48;;;4.40;99.90;;;;;;5049707;28;20471;-54
2020/12/17 05:44:20;;;;;;;21.10;12.98;;;5.10;99.90;;;;;;5047532;28;20784;-54
2020/12/17 05:46:47;;;;;;;18.70;11.83;;;4.40;99.90;;;;;;5047919;28;20401;-54
2020/12/17 05:49:18;;;;;;;23.42;13.00;;;4.40;99.90;;;;;;5030399;28;20376;-54
2020/12/17 05:51:46;;;;;;;19.35;12.63;;;4.40;99.90;;;;;;5042867;28;20453;-55
2020/12/17 05:54:24;;;;;;;22.03;12.87;;;4.50;99.90;;;;;;5048557;28;20389;-54
2020/12/17 05:57:09;;;;;;;18.90;12.43;;;4.50;99.90;;;;;;5049430;28;20379;-54
2020/12/17 05:59:35;;;;;;;21.20;12.90;;;4.40;99.90;;;;;;5049440;28;20482;-56
2020/12/17 06:02:22;;;;;;;22.10;13.10;;;4.40;99.90;;;;;;5048030;28;20401;-54
2020/12/17 06:05:13;;;;;;;19.05;12.20;;;4.40;99.90;;;;;;5054698;28;20437;-54
2020/12/17 06:07:47;;;;;;;19.05;12.15;;;4.40;99.90;;;;;;5047479;28;20438;-54
2020/12/17 06:10:31;;;;;;;22.10;12.20;;;4.40;99.90;;;;;;5046441;28;20405;-54
2020/12/17 06:13:01;;;;;;;23.17;13.52;;;5.10;99.90;;;;;;5047306;28;20478;-54
2020/12/17 06:15:31;;;;;;;19.90;12.45;;;4.40;99.90;;;;;;5044709;28;20401;-54
2020/12/17 06:17:58;;;;;;;21.55;12.10;;;4.40;99.90;;;;;;5034668;28;20819;-54
2020/12/17 06:20:30;;;;;;;18.73;12.38;;;5.40;99.90;;;;;;5044141;28;20487;-54
2020/12/17 06:23:08;;;;;;;22.38;13.30;;;4.60;99.90;;;;;;5045762;28;20382;-54
2020/12/17 06:25:37;;;;;;;21.85;14.48;;;4.70;99.90;;;;;;5048048;28;20401;-56
2020/12/17 06:28:03;;;;;;;22.97;14.80;;;4.80;99.90;;;;;;5049205;28;20468;-54
2020/12/17 06:30:33;;;;;;;30.00;19.20;;;6.10;99.90;;;;;;5047185;28;20410;-54
2020/12/17 06:33:05;;;;;;;27.97;15.67;;;6.00;99.90;;;;;;5048748;28;20370;-53
2020/12/17 06:35:39;;;;;;;21.60;13.35;;;5.10;99.90;;;;;;5047960;28;20401;-54
2020/12/17 06:38:11;;;;;;;20.83;13.47;;;5.90;99.90;;;;;;5043649;28;20424;-54
2020/12/17 06:40:39;;;;;;;19.48;13.00;;;5.00;99.90;;;;;;5046577;28;20484;-56
2020/12/17 06:43:29;;;;;;;20.95;12.30;;;4.90;99.90;;;;;;5048450;28;20386;-54
2020/12/17 06:45:55;;;;;;;20.90;13.68;;;4.90;99.90;;;;;;5044944;28;21085;-54
2020/12/17 06:48:37;;;;;;;21.20;13.20;;;5.90;99.90;;;;;;5044433;28;20583;-54
2020/12/17 06:51:29;;;;;;;19.98;12.48;;;5.00;99.90;;;;;;5047326;28;20397;-53
2020/12/17 06:53:55;;;;;;;20.80;12.20;;;5.00;99.90;;;;;;5045919;28;21084;-54
2020/12/17 06:56:21;;;;;;;18.63;11.33;;;5.50;99.90;;;;;;5045387;28;20496;-54
2020/12/17 06:58:47;;;;;;;19.70;11.10;;;5.00;99.90;;;;;;5040886;28;20491;-54
2020/12/17 07:01:23;;;;;;;15.43;10.45;;;5.10;99.90;;;;;;5048866;28;20398;-54
2020/12/17 07:03:50;;;;;;;16.13;9.95;;;5.20;99.90;;;;;;5044049;28;20431;-54
2020/12/17 07:06:19;;;;;;;16.27;9.70;;;5.40;99.90;;;;;;5041442;28;20439;-54
2020/12/17 07:08:56;;;;;;;17.23;9.75;;;5.50;99.90;;;;;;5040692;28;20921;-54
2020/12/17 07:11:46;;;;;;;16.60;10.70;;;5.60;99.90;;;;;;5050110;28;20478;-54
2020/12/17 07:14:18;;;;;;;19.55;10.50;;;5.60;99.90;;;;;;5052072;28;20867;-54
2020/12/17 07:17:00;;;;;;;16.90;10.83;;;5.70;99.90;;;;;;5039103;28;20397;-53
2020/12/17 07:19:26;;;;;;;18.45;11.50;;;5.50;99.90;;;;;;5038833;28;20484;-54
2020/12/17 07:21:58;;;;;;;18.73;11.15;;;5.50;99.90;;;;;;5036808;28;20407;-56
2020/12/17 07:24:30;;;;;;;16.40;10.55;;;5.60;99.90;;;;;;5055345;28;20515;-54
2020/12/17 07:27:01;;;;;;;19.30;11.80;;;5.70;99.90;;;;;;5048699;28;20903;-54
2020/12/17 07:30:00;;;;;;;20.17;11.65;;;5.70;99.90;;;;;;5056640;28;20743;-54
2020/12/17 07:32:36;;;;;;;21.70;12.20;;;5.70;99.90;;;;;;5058240;28;20984;-54
2020/12/17 07:35:07;;;;;;;17.88;12.07;;;5.70;99.90;;;;;;5046672;28;20427;-54
2020/12/17 07:37:51;;;;;;;19.77;11.70;;;5.60;99.90;;;;;;5046280;28;20463;-54
2020/12/17 07:40:18;;;;;;;19.70;12.50;;;5.50;99.90;;;;;;5045347;28;20757;-54
2020/12/17 07:43:09;;;;;;;19.13;12.07;;;5.60;99.90;;;;;;5051778;28;20407;-54
2020/12/17 07:45:51;;;;;;;19.67;12.23;;;5.60;99.90;;;;;;5049021;28;20796;-54
2020/12/17 07:48:51;;;;;;;22.13;12.55;;;5.70;99.90;;;;;;5053402;28;20863;-54
2020/12/17 07:51:17;;;;;;;19.85;11.93;;;5.70;99.90;;;;;;5041873;28;20789;-53
2020/12/17 07:53:49;;;;;;;21.17;12.67;;;5.80;99.90;;;;;;5061793;28;20395;-54
2020/12/17 07:56:17;;;;;;;19.70;11.85;;;5.80;99.90;;;;;;5052883;28;20391;-53
2020/12/17 07:58:43;;;;;;;19.00;12.02;;;5.80;99.90;;;;;;5061261;28;21208;-54
2020/12/17 08:01:10;;;;;;;18.13;11.73;;;5.70;99.90;;;;;;5058160;28;20403;-54
2020/12/17 08:03:49;;;;;;;18.00;11.57;;;5.60;99.90;;;;;;5052521;28;20870;-54
2020/12/17 08:06:17;;;;;;;17.88;10.80;;;5.50;99.90;;;;;;5053035;28;20404;-54
2020/12/17 08:08:43;;;;;;;19.15;10.60;;;5.50;99.90;;;;;;5055195;28;20887;-54
2020/12/17 08:11:10;;;;;;;16.30;10.88;;;5.50;99.90;;;;;;5060180;28;20897;-54
2020/12/17 08:13:37;;;;;;;18.90;12.10;;;5.50;99.90;;;;;;5059698;28;20417;-56
2020/12/17 08:16:04;;;;;;;17.42;10.93;;;4.40;99.90;;;;;;5047392;28;20402;-54
2020/12/17 08:18:35;;;;;;;21.15;11.15;;;5.60;99.90;;;;;;5057107;28;20410;-54
2020/12/17 08:21:11;;;;;;;18.63;11.88;;;5.60;99.90;;;;;;5056828;28;20417;-53
2020/12/17 08:23:41;;;;;;;19.70;11.55;;;5.70;99.90;;;;;;5057888;28;20456;-56
2020/12/17 08:26:13;;;;;;;21.58;11.85;;;5.70;99.90;;;;;;5060416;28;20910;-54
2020/12/17 08:28:40;;;;;;;21.63;12.15;;;5.80;99.90;;;;;;5054218;28;20404;-56
2020/12/17 08:31:13;;;;;;;17.30;10.60;;;5.90;99.90;;;;;;5060275;28;20482;-53
2020/12/17 08:33:45;;;;;;;20.45;11.38;;;5.80;99.90;;;;;;5058182;28;20382;-56
2020/12/17 08:36:15;;;;;;;19.10;11.00;;;5.70;99.90;;;;;;5050833;28;20389;-54
2020/12/17 08:38:51;;;;;;;18.58;10.93;;;5.70;99.90;;;;;;5056306;28;20442;-56
2020/12/17 08:41:18;;;;;;;17.05;10.40;;;5.50;99.90;;;;;;5055198;28;20502;-54
2020/12/17 08:43:47;;;;;;;18.08;11.50;;;5.50;99.90;;;;;;5057764;28;20742;-54
2020/12/17 08:46:17;;;;;;;18.47;11.10;;;5.50;99.90;;;;;;5052171;28;20491;-54
2020/12/17 08:48:45;;;;;;;20.80;11.90;;;5.60;99.90;;;;;;5044597;28;20417;-54
2020/12/17 08:51:12;;;;;;;16.60;10.20;;;5.70;99.90;;;;;;5039267;28;20394;-54
2020/12/17 08:53:43;;;;;;;16.60;9.90;;;5.80;99.90;;;;;;5040236;28;20824;-56
2020/12/17 08:56:23;;;;;;;18.30;10.30;;;6.00;99.90;;;;;;5042147;28;20421;-54
2020/12/17 08:59:00;;;;;;;17.98;9.65;;;6.20;99.90;;;;;;5049666;28;20409;-54
2020/12/17 09:01:27;;;;;;;16.50;9.77;;;6.40;99.90;;;;;;5043975;28;20425;-54
2020/12/17 09:03:54;;;;;;;14.60;8.88;;;6.70;99.90;;;;;;5049563;28;20387;-54
2020/12/17 09:06:26;;;;;;;17.73;10.07;;;6.70;99.90;;;;;;5040585;28;20386;-54
2020/12/17 09:08:53;;;;;;;16.52;10.02;;;7.00;99.90;;;;;;5047687;28;20397;-55
2020/12/17 09:11:30;;;;;;;18.02;9.20;;;7.50;99.90;;;;;;5051753;28;20756;-54
2020/12/17 09:14:05;;;;;;;14.25;8.18;;;9.10;99.90;;;;;;5049274;28;20434;-53
2020/12/17 09:16:32;;;;;;;15.88;8.48;;;10.40;99.90;;;;;;5039676;28;20755;-54
2020/12/17 09:18:59;;;;;;;13.98;8.00;;;11.50;99.90;;;;;;5045080;28;20409;-54
2020/12/17 09:21:26;;;;;;;15.00;8.00;;;12.20;99.90;;;;;;5039413;28;20488;-53
2020/12/17 09:23:59;;;;;;;14.82;9.10;;;12.20;99.90;;;;;;5044871;28;20817;-54
2020/12/17 09:26:26;;;;;;;11.57;8.00;;;12.90;99.90;;;;;;5044820;28;20380;-55
2020/12/17 09:29:03;;;;;;;11.10;8.32;;;13.80;99.90;;;;;;5050704;28;20897;-54
2020/12/17 09:31:35;;;;;;;12.13;6.95;;;14.50;99.90;;;;;;5054723;28;20407;-55
2020/12/17 09:34:12;;;;;;;14.13;7.40;;;15.10;99.90;;;;;;5057742;28;20389;-55
2020/12/17 09:36:42;;;;;;;12.10;6.90;;;15.60;99.90;;;;;;5048846;28;20450;-54
2020/12/17 09:39:16;;;;;;;15.27;6.57;;;15.90;99.90;;;;;;5051775;28;20422;-54
2020/12/17 09:41:55;;;;;;;13.60;7.50;;;16.40;99.90;;;;;;5047536;28;20386;-57
2020/12/17 09:44:34;;;;;;;12.63;7.03;;;17.10;99.90;;;;;;5045040;28;20398;-54
2020/12/17 09:47:02;;;;;;;10.15;6.30;;;17.30;99.90;;;;;;5037509;28;20401;-55
2020/12/17 09:49:34;;;;;;;11.55;8.07;;;17.40;99.90;;;;;;5044437;28;20403;-56
2020/12/17 09:52:09;;;;;;;9.48;6.00;;;17.90;99.90;;;;;;5050238;28;20494;-55
2020/12/17 09:54:43;;;;;;;9.00;7.00;;;18.50;98.20;;;;;;5041359;28;20489;-54
2020/12/17 09:57:14;;;;;;;8.90;5.78;;;18.70;98.50;;;;;;5038478;28;20407;-54
2020/12/17 09:59:42;;;;;;;11.70;7.05;;;18.70;98.80;;;;;;5034949;28;20405;-54
2020/12/17 10:02:10;;;;;;;15.27;9.50;;;18.80;98.70;;;;;;5048317;28;20380;-54
2020/12/17 10:04:37;;;;;;;9.48;5.50;;;18.70;98.60;;;;;;5058759;28;20532;-55
2020/12/17 10:07:04;;;;;;;9.98;5.20;;;18.50;98.30;;;;;;5052277;28;21067;-54
2020/12/17 10:09:30;;;;;;;7.70;4.53;;;19.20;98.10;;;;;;5053840;28;20496;-54
2020/12/17 10:11:57;;;;;;;6.68;3.60;;;19.50;97.70;;;;;;5049746;28;20539;-55
2020/12/17 10:14:23;;;;;;;6.43;3.50;;;18.50;96.50;;;;;;5049725;28;20454;-54
2020/12/17 10:16:54;;;;;;;6.47;3.72;;;16.30;99.80;;;;;;5038890;28;20408;-54
2020/12/17 10:19:22;;;;;;;7.03;4.40;;;15.40;99.90;;;;;;5067444;28;20866;-55
2020/12/17 10:21:48;;;;;;;6.70;3.40;;;14.40;99.90;;;;;;5040926;28;21493;-55
2020/12/17 10:24:14;;;;;;;7.18;3.40;;;13.80;99.90;;;;;;5043231;28;20405;-54
2020/12/17 10:26:40;;;;;;;8.25;3.50;;;13.90;99.90;;;;;;5040783;28;20413;-56
2020/12/17 10:29:06;;;;;;;6.70;3.20;;;14.10;99.90;;;;;;5033565;28;20395;-54
2020/12/17 10:31:32;;;;;;;9.00;3.23;;;14.60;99.90;;;;;;5039254;28;20404;-54
2020/12/17 10:33:57;;;;;;;7.03;3.33;;;15.70;99.90;;;;;;5041810;28;20763;-55
2020/12/17 10:36:24;;;;;;;6.80;3.40;;;16.50;99.90;;;;;;5043449;28;20388;-54
2020/12/17 10:38:50;;;;;;;5.80;3.10;;;17.10;99.90;;;;;;5044759;28;20486;-54
2020/12/17 10:41:23;;;;;;;7.57;3.40;;;17.10;99.90;;;;;;5045494;28;20393;-55
2020/12/17 10:43:49;;;;;;;6.35;3.83;;;17.70;99.90;;;;;;5041166;28;20386;-54
2020/12/17 10:46:15;;;;;;;7.80;3.05;;;17.90;99.90;;;;;;5034772;28;20392;-55
2020/12/17 10:48:40;;;;;;;6.53;4.00;;;18.10;99.90;;;;;;5041630;28;20896;-55
2020/12/17 10:51:06;;;;;;;7.20;3.67;;;18.40;99.90;;;;;;5039707;28;21150;-55
2020/12/17 10:53:32;;;;;;;6.30;3.70;;;18.50;99.90;;;;;;5040096;28;20451;-54
2020/12/17 10:55:58;;;;;;;7.82;3.50;;;17.80;99.90;;;;;;5045059;28;20859;-54
2020/12/17 10:58:24;;;;;;;8.50;4.00;;;17.20;99.90;;;;;;5035249;28;20422;-53
2020/12/17 11:00:50;;;;;;;16.10;3.75;;;16.50;99.90;;;;;;5045521;28;20393;-53
2020/12/17 11:03:16;;;;;;;7.00;3.53;;;15.60;99.90;;;;;;5048482;28;20630;-53
2020/12/17 11:05:42;;;;;;;9.23;3.80;;;13.90;99.90;;;;;;5049529;28;20447;-52
2020/12/17 11:08:08;;;;;;;11.55;5.80;;;13.30;99.90;;;;;;5036311;28;20412;-53
2020/12/17 11:10:34;;;;;;;12.45;7.20;;;12.70;99.90;;;;;;5040528;28;20451;-54
2020/12/17 11:13:00;;;;;;;11.10;7.20;;;12.30;99.90;;;;;;5042864;28;20401;-53
2020/12/17 11:15:26;;;;;;;13.27;7.43;;;12.30;99.90;;;;;;5049744;28;20390;-53
2020/12/17 11:17:51;;;;;;;11.98;7.60;;;12.30;99.90;;;;;;5040746;28;20410;-54
2020/12/17 11:20:18;;;;;;;13.23;7.63;;;12.40;99.90;;;;;;5045162;28;20786;-54
2020/12/17 11:22:45;;;;;;;15.52;8.60;;;12.40;99.90;;;;;;5048929;28;20504;-57
2020/12/17 11:25:11;;;;;;;15.60;8.52;;;12.30;99.90;;;;;;5045800;28;20428;-54
2020/12/17 11:27:37;;;;;;;14.90;9.00;;;12.10;99.90;;;;;;5046041;28;20434;-53
2020/12/17 11:30:06;;;;;;;14.00;7.60;;;12.00;99.90;;;;;;5041958;28;20491;-54
2020/12/17 11:32:32;;;;;;;14.73;7.00;;;11.80;99.90;;;;;;5035901;28;20498;-53
2020/12/17 11:34:58;;;;;;;11.98;7.30;;;11.50;99.90;;;;;;5034243;28;20406;-53
2020/12/17 11:37:24;;;;;;;12.70;7.30;;;11.50;99.90;;;;;;5044727;28;20417;-53
2020/12/17 11:39:49;;;;;;;13.15;7.30;;;11.40;99.90;;;;;;5042678;28;20436;-53
2020/12/17 11:42:16;;;;;;;13.20;7.20;;;11.60;99.90;;;;;;5045157;28;20473;-53
2020/12/17 11:44:42;;;;;;;13.75;7.78;;;11.70;99.90;;;;;;5050505;28;20835;-54
2020/12/17 11:47:08;;;;;;;13.30;6.73;;;11.50;99.90;;;;;;5040101;28;20417;-56
2020/12/17 11:49:33;;;;;;;10.45;7.05;;;11.40;99.90;;;;;;5040051;28;20421;-53
2020/12/17 11:51:59;;;;;;;12.10;6.60;;;11.30;99.90;;;;;;5050394;28;20479;-54
2020/12/17 11:54:24;;;;;;;10.90;7.22;;;11.30;99.90;;;;;;5040769;28;20484;-53
2020/12/17 11:56:50;;;;;;;12.90;7.10;;;11.50;99.90;;;;;;5041603;28;20432;-52
2020/12/17 11:59:17;;;;;;;11.00;6.15;;;11.50;99.90;;;;;;5048910;28;20387;-53
2020/12/17 12:01:43;;;;;;;11.07;7.18;;;11.40;99.90;;;;;;5052379;28;20485;-56
2020/12/17 12:04:09;;;;;;;12.48;7.55;;;11.50;99.90;;;;;;5049295;28;20473;-53
2020/12/17 12:06:35;;;;;;;12.68;6.55;;;11.60;99.90;;;;;;5041941;28;20460;-52
2020/12/17 12:09:01;;;;;;;12.77;7.60;;;11.60;99.90;;;;;;5043038;28;20401;-53
2020/12/17 12:11:27;;;;;;;13.43;7.30;;;11.50;99.90;;;;;;5048723;28;20855;-53
2020/12/17 12:13:53;;;;;;;11.18;7.10;;;11.50;99.90;;;;;;5043995;28;20390;-53
2020/12/17 12:16:20;;;;;;;11.32;6.90;;;11.50;99.90;;;;;;5035751;28;20488;-53
2020/12/17 12:18:48;;;;;;;11.77;7.00;;;11.50;99.90;;;;;;5042008;28;20422;-56
2020/12/17 12:21:14;;;;;;;11.68;7.22;;;11.40;99.90;;;;;;5035519;28;20407;-53
2020/12/17 12:23:46;;;;;;;12.60;7.40;;;11.30;99.90;;;;;;5046671;28;20465;-54
2020/12/17 12:26:13;;;;;;;12.25;7.22;;;11.30;99.90;;;;;;5045439;28;20405;-54
2020/12/17 12:28:39;;;;;;;12.48;7.82;;;13.50;99.90;;;;;;5047191;28;20389;-54
2020/12/17 12:31:05;;;;;;;13.88;7.70;;;11.20;99.90;;;;;;5046166;28;20480;-53
2020/12/17 12:33:31;;;;;;;10.82;7.22;;;11.30;99.90;;;;;;5045797;28;20461;-53
2020/12/17 12:35:57;;;;;;;10.85;7.20;;;11.20;99.90;;;;;;5046947;28;20407;-56
2020/12/17 12:38:24;;;;;;;12.48;7.25;;;11.10;99.90;;;;;;5050325;28;20429;-54
2020/12/17 12:40:49;;;;;;;12.27;7.20;;;11.20;99.90;;;;;;5042309;28;20927;-54
2020/12/17 12:43:15;;;;;;;13.07;7.00;;;11.30;99.90;;;;;;5042501;28;20424;-54
2020/12/17 12:45:41;;;;;;;11.30;7.30;;;11.10;99.90;;;;;;5044619;28;20443;-54